Time;durP1;ratioP1;P1;durP2;ratioP2;P2;SDS_P1;SDS_P2;PMS_P1;PMS_P2;Temp;Humidity;BMP_temperature;BMP_pressure;BME280_temperature;BME280_humidity;BME280_pressure;Samples;Min_cycle;Max_cycle;Signal;HPM_P1;HPM_P2
2021/06/08 00:01:27;;;;;;;10.77;7.05;;;18.30;86.20;;;17.33;81.15;101227.22;5068226;28;20056;-80
2021/06/08 00:04:06;;;;;;;8.82;6.88;;;18.30;86.40;;;17.29;80.97;101228.72;5067820;28;20508;-80
2021/06/08 00:06:43;;;;;;;9.32;6.53;;;18.20;86.20;;;17.25;81.08;101230.16;5068285;28;20097;-80
2021/06/08 00:09:22;;;;;;;10.57;6.38;;;18.10;86.30;;;17.20;81.01;101228.06;5067022;28;20389;-80
2021/06/08 00:11:57;;;;;;;11.02;6.80;;;18.10;86.30;;;17.14;81.17;101224.25;5068257;28;20525;-80
2021/06/08 00:14:33;;;;;;;11.90;6.63;;;18.10;86.40;;;17.11;81.22;101227.41;5068101;28;20040;-80
2021/06/08 00:17:11;;;;;;;7.72;6.13;;;18.00;86.40;;;17.08;81.23;101230.59;5068422;28;20044;-80
2021/06/08 00:19:49;;;;;;;11.18;6.70;;;18.00;86.60;;;17.05;81.27;101225.50;5067311;28;20071;-80
2021/06/08 00:22:26;;;;;;;11.38;6.65;;;17.90;86.70;;;17.02;81.11;101231.44;5068262;28;20052;-80
2021/06/08 00:25:04;;;;;;;14.02;6.95;;;17.90;86.70;;;16.99;81.21;101237.34;5054168;28;20053;-80
2021/06/08 00:27:42;;;;;;;14.55;7.57;;;17.80;86.60;;;16.96;81.33;101238.63;5048488;28;20474;-80
2021/06/08 00:30:19;;;;;;;10.60;6.75;;;17.80;86.80;;;16.92;81.00;101231.00;5046744;28;20056;-80
2021/06/08 00:32:54;;;;;;;11.30;7.32;;;17.70;86.60;;;16.91;81.04;101230.16;5048521;28;20052;-80
2021/06/08 00:35:32;;;;;;;10.82;6.80;;;17.70;86.70;;;16.87;81.13;101228.00;5046911;28;20048;-80
2021/06/08 00:38:13;;;;;;;13.27;6.97;;;17.70;86.80;;;16.84;81.15;101234.78;5048389;28;20489;-80
2021/06/08 00:40:51;;;;;;;11.17;7.33;;;17.70;86.90;;;16.81;81.26;101225.03;5066903;22;20049;-80
2021/06/08 00:43:32;;;;;;;11.98;7.50;;;17.60;86.80;;;16.80;81.14;101227.97;5070504;28;20061;-78
2021/06/08 00:46:10;;;;;;;13.90;7.50;;;17.60;87.00;;;16.77;81.24;101229.25;5071950;28;20154;-78
2021/06/08 00:48:48;;;;;;;11.43;7.90;;;17.60;87.00;;;16.75;81.36;101225.88;5072132;28;20052;-77
2021/06/08 00:51:25;;;;;;;12.18;7.95;;;17.60;87.10;;;16.76;81.27;101237.69;5071522;28;20063;-77
2021/06/08 00:54:06;;;;;;;13.40;7.60;;;17.60;87.30;;;16.75;81.39;101223.13;5072038;28;20048;-77
2021/06/08 00:56:47;;;;;;;11.65;7.95;;;17.50;87.40;;;16.73;81.67;101222.44;5071962;28;20496;-77
2021/06/08 00:59:22;;;;;;;10.93;7.80;;;17.50;87.50;;;16.73;81.71;101221.63;5071737;28;20052;-78
2021/06/08 01:02:00;;;;;;;13.32;8.82;;;17.50;87.60;;;16.72;81.57;101226.28;5071812;28;20055;-77
2021/06/08 01:04:38;;;;;;;12.70;8.85;;;17.50;87.60;;;16.69;81.49;101221.19;5071765;28;20040;-77
2021/06/08 01:07:14;;;;;;;11.38;7.45;;;17.40;87.50;;;16.66;81.55;101227.13;5071796;28;20036;-77
2021/06/08 01:10:12;;;;;;;11.35;8.60;;;17.40;87.60;;;16.64;81.44;101226.47;5069916;28;20067;-77
2021/06/08 01:12:51;;;;;;;12.45;8.52;;;17.40;87.60;;;16.60;81.42;101222.41;5087094;28;20498;-77
2021/06/08 01:15:26;;;;;;;12.60;8.82;;;17.40;87.60;;;16.58;81.64;101216.28;5071514;28;20700;-77
2021/06/08 01:18:04;;;;;;;11.70;8.73;;;17.30;87.60;;;16.56;81.61;101215.66;5071008;28;20041;-77
2021/06/08 01:20:39;;;;;;;11.70;8.35;;;17.30;87.60;;;16.53;81.33;101216.91;5069408;28;20058;-77
2021/06/08 01:23:34;;;;;;;13.43;8.85;;;17.30;87.60;;;16.49;81.38;101220.31;5070830;28;20489;-77
2021/06/08 01:26:14;;;;;;;11.75;8.38;;;17.30;87.60;;;16.48;81.38;101224.09;5069750;28;20492;-77
2021/06/08 01:28:53;;;;;;;12.25;8.30;;;17.20;87.50;;;16.45;81.32;101230.84;5071180;28;20408;-77
2021/06/08 01:31:34;;;;;;;14.73;8.60;;;17.20;87.50;;;16.43;81.12;101235.72;5070765;28;20048;-77
2021/06/08 01:34:12;;;;;;;13.75;9.40;;;17.20;87.40;;;16.39;81.10;101227.03;5071235;28;20041;-77
2021/06/08 01:36:50;;;;;;;16.10;9.05;;;17.20;87.50;;;16.38;81.20;101224.47;5071072;28;20043;-77
2021/06/08 01:39:27;;;;;;;13.75;9.20;;;17.20;87.50;;;16.35;81.25;101225.72;5071128;28;20044;-77
2021/06/08 01:42:06;;;;;;;16.30;8.90;;;17.10;87.50;;;16.34;80.98;101224.03;5070949;28;20045;-77
2021/06/08 01:44:43;;;;;;;12.65;8.27;;;17.10;87.50;;;16.33;80.97;101227.00;5071030;28;20500;-77
2021/06/08 01:47:19;;;;;;;14.35;8.80;;;17.10;87.50;;;16.28;81.03;101213.88;5070964;28;20394;-77
2021/06/08 01:49:54;;;;;;;12.27;8.50;;;17.00;87.50;;;16.27;81.00;101222.31;5070598;28;20068;-77
2021/06/08 01:52:41;;;;;;;13.32;8.27;;;17.00;87.40;;;16.25;81.03;101224.44;5070386;28;20072;-77
2021/06/08 01:55:25;;;;;;;14.32;8.93;;;17.00;87.40;;;16.24;80.50;101226.34;5070649;28;20041;-77
2021/06/08 01:58:13;;;;;;;15.40;9.38;;;16.90;87.40;;;16.20;81.00;101227.78;5070705;28;20044;-77
2021/06/08 02:00:54;;;;;;;14.13;8.77;;;16.90;87.50;;;16.16;80.84;101223.75;5070121;28;20044;-77
2021/06/08 02:03:38;;;;;;;13.00;8.57;;;16.90;87.50;;;16.14;80.74;101223.09;5070764;28;20052;-77
2021/06/08 02:06:24;;;;;;;14.82;8.25;;;16.90;87.50;;;16.13;80.91;101224.16;5070320;28;20056;-77
2021/06/08 02:09:15;;;;;;;13.13;8.80;;;16.80;87.60;;;16.11;80.70;101229.03;5070216;28;20051;-77
2021/06/08 02:12:03;;;;;;;11.73;8.20;;;16.80;87.50;;;16.08;80.78;101227.50;5069649;28;20051;-77
2021/06/08 02:14:47;;;;;;;12.68;8.95;;;16.80;87.60;;;16.05;80.93;101232.56;5050497;28;20060;-77
2021/06/08 02:17:28;;;;;;;11.88;8.38;;;16.80;87.60;;;16.05;80.66;101238.91;5065494;28;20049;-77
2021/06/08 02:20:14;;;;;;;12.73;7.65;;;16.80;87.60;;;16.01;80.78;101237.59;5050210;28;20429;-77
2021/06/08 02:22:57;;;;;;;12.90;8.07;;;16.70;87.70;;;15.98;80.76;101225.13;5050049;28;20048;-77
2021/06/08 02:25:37;;;;;;;11.30;8.02;;;16.70;87.60;;;15.97;80.55;101231.69;5050249;28;20591;-77
2021/06/08 02:28:32;;;;;;;12.95;8.13;;;16.70;87.60;;;15.95;80.55;101220.03;5049903;28;20572;-77
2021/06/08 02:31:11;;;;;;;15.07;8.30;;;16.60;87.50;;;15.92;80.53;101228.69;5049732;28;20045;-77
2021/06/08 02:33:47;;;;;;;11.63;7.53;;;16.60;87.50;;;15.91;80.76;101227.00;5049789;28;20041;-77
2021/06/08 02:36:26;;;;;;;13.30;8.40;;;16.60;87.50;;;15.89;80.42;101236.50;5049938;28;20080;-77
2021/06/08 02:39:06;;;;;;;12.65;7.97;;;16.50;87.50;;;15.86;80.62;101224.03;5049689;28;20094;-77
2021/06/08 02:41:40;;;;;;;12.32;8.40;;;16.50;87.60;;;15.83;80.47;101232.66;5049327;28;20095;-77
2021/06/08 02:44:23;;;;;;;13.50;8.98;;;16.50;87.60;;;15.83;80.49;101232.66;5048284;28;20045;-77
2021/06/08 02:47:02;;;;;;;13.43;8.55;;;16.50;87.60;;;15.81;80.70;101237.50;5049668;28;20045;-77
2021/06/08 02:49:41;;;;;;;11.90;8.73;;;16.50;87.90;;;15.80;80.54;101230.31;5049494;28;20052;-77
2021/06/08 02:52:21;;;;;;;15.98;9.25;;;16.50;87.80;;;15.79;80.74;101232.22;5049649;28;20142;-77
2021/06/08 02:55:01;;;;;;;12.30;8.73;;;16.40;87.80;;;15.78;80.84;101230.53;5049711;28;20045;-77
2021/06/08 02:57:37;;;;;;;15.25;8.93;;;16.40;87.90;;;15.77;80.86;101238.97;5049501;28;20066;-77
2021/06/08 03:00:29;;;;;;;14.48;9.23;;;16.40;87.90;;;15.76;80.78;101229.00;5049345;28;20489;-77
2021/06/08 03:03:08;;;;;;;12.52;8.60;;;16.40;87.90;;;15.71;80.92;101237.84;5048547;28;20072;-77
2021/06/08 03:05:48;;;;;;;13.40;8.38;;;16.40;87.90;;;15.70;80.91;101238.03;5049373;28;20099;-77
2021/06/08 03:08:30;;;;;;;11.55;8.20;;;16.40;88.00;;;15.69;80.62;101236.31;5064384;28;20063;-77
2021/06/08 03:11:13;;;;;;;14.60;8.45;;;16.40;87.90;;;15.67;80.58;101236.53;5048790;28;20045;-77
2021/06/08 03:13:52;;;;;;;12.43;8.18;;;16.30;87.90;;;15.63;80.61;101238.84;5049116;28;20064;-77
2021/06/08 03:16:30;;;;;;;13.10;8.52;;;16.30;87.90;;;15.63;80.64;101235.22;5047776;28;20057;-77
2021/06/08 03:19:14;;;;;;;10.90;7.97;;;16.30;87.90;;;15.60;80.42;101233.75;5048891;28;20044;-77
2021/06/08 03:21:56;;;;;;;10.98;8.30;;;16.30;87.80;;;15.58;80.56;101233.09;5048664;28;20045;-77
2021/06/08 03:24:36;;;;;;;12.70;8.45;;;16.20;87.70;;;15.55;80.55;101233.47;5047277;28;20584;-77
2021/06/08 03:27:15;;;;;;;12.05;8.68;;;16.20;87.90;;;15.53;80.65;101232.84;5047497;28;20040;-77
2021/06/08 03:29:53;;;;;;;14.07;8.27;;;16.20;88.00;;;15.52;80.56;101236.63;5048646;28;20040;-77
2021/06/08 03:32:30;;;;;;;10.65;8.18;;;16.20;88.00;;;15.49;80.78;101237.03;5048929;28;20055;-78
2021/06/08 03:35:10;;;;;;;10.73;8.15;;;16.20;88.00;;;15.48;80.67;101240.84;5048783;28;20052;-78
2021/06/08 03:37:47;;;;;;;13.30;8.10;;;16.10;88.00;;;15.49;80.74;101247.16;5048918;28;20080;-78
2021/06/08 03:40:26;;;;;;;12.45;7.75;;;16.20;88.10;;;15.48;80.82;101240.84;5048327;28;20041;-81
2021/06/08 03:43:05;;;;;;;11.75;8.43;;;16.10;88.20;;;15.46;81.07;101245.69;5048597;28;20094;-80
2021/06/08 03:45:40;;;;;;;13.13;8.95;;;16.10;88.40;;;15.47;81.44;101244.59;5048548;28;20048;-79
2021/06/08 03:48:20;;;;;;;13.40;9.30;;;16.20;88.70;;;15.48;81.94;101243.56;5048503;28;20045;-80
2021/06/08 03:50:57;;;;;;;12.90;9.20;;;16.20;89.00;;;15.50;82.30;101243.34;5048359;28;20110;-79
2021/06/08 03:53:35;;;;;;;13.70;8.77;;;16.20;89.30;;;15.53;82.57;101238.31;5048386;28;20037;-80
2021/06/08 03:56:13;;;;;;;14.23;8.88;;;16.20;89.50;;;15.54;82.79;101237.28;5063777;28;20571;-80
2021/06/08 03:58:53;;;;;;;12.27;8.50;;;16.20;89.70;;;15.57;82.78;101245.13;5048383;28;20071;-80
2021/06/08 04:01:23;;;;;;;13.35;9.65;;;16.30;89.90;;;15.59;82.98;101245.78;5048187;28;20053;-80
2021/06/08 04:04:01;;;;;;;14.17;9.57;;;16.30;89.90;;;15.62;83.14;101253.59;5063618;28;20053;-80
2021/06/08 04:06:36;;;;;;;13.60;9.32;;;16.40;90.00;;;15.64;83.43;101256.97;5048406;28;20341;-80
2021/06/08 04:09:15;;;;;;;15.73;9.23;;;16.40;90.00;;;15.67;83.72;101243.91;5048216;28;20116;-79
2021/06/08 04:11:54;;;;;;;12.25;8.80;;;16.40;90.10;;;15.69;84.04;101248.16;5048257;28;20116;-79
2021/06/08 04:14:34;;;;;;;12.43;9.18;;;16.40;90.20;;;15.72;84.21;101246.91;5048121;28;20175;-80
2021/06/08 04:17:13;;;;;;;13.20;9.65;;;16.50;90.50;;;15.74;84.26;101242.09;5048430;28;20049;-79
2021/06/08 04:19:50;;;;;;;14.07;8.90;;;16.50;90.70;;;15.76;84.46;101242.72;5047673;28;20729;-79
2021/06/08 04:22:35;;;;;;;14.23;9.02;;;16.50;90.60;;;15.77;84.54;101238.97;5051005;28;20045;-79
2021/06/08 04:25:14;;;;;;;13.60;8.65;;;16.60;90.70;;;15.79;85.02;101243.19;5048262;28;20048;-80
2021/06/08 04:27:53;;;;;;;12.75;8.25;;;16.60;91.00;;;15.80;85.44;101244.03;5048361;28;20076;-80
2021/06/08 04:30:28;;;;;;;13.50;8.80;;;16.70;91.30;;;15.82;85.72;101241.94;5047869;28;20064;-80
2021/06/08 04:33:06;;;;;;;14.43;8.85;;;16.70;91.50;;;15.85;85.89;101246.19;5048500;28;20048;-80
2021/06/08 04:35:43;;;;;;;13.20;8.68;;;16.70;91.50;;;15.87;85.77;101250.41;5048306;28;20394;-80
2021/06/08 04:38:23;;;;;;;13.90;9.38;;;16.70;91.60;;;15.89;85.90;101248.31;5048059;28;20064;-79
2021/06/08 04:41:00;;;;;;;15.27;9.77;;;16.80;91.60;;;15.93;86.25;101238.63;5047822;28;20048;-79
2021/06/08 04:43:37;;;;;;;18.05;9.85;;;16.80;91.60;;;15.96;86.26;101253.84;5048198;28;20072;-80
2021/06/08 04:46:20;;;;;;;13.23;9.32;;;16.80;91.70;;;15.97;86.55;101250.91;5048160;28;20098;-80
2021/06/08 04:48:55;;;;;;;12.13;9.20;;;16.80;91.90;;;16.00;86.88;101247.75;5048022;28;20049;-79
2021/06/08 04:51:50;;;;;;;15.05;9.10;;;16.90;92.20;;;16.02;86.98;101242.06;5047779;28;20424;-79
2021/06/08 04:54:31;;;;;;;14.98;8.95;;;16.90;92.30;;;16.06;87.15;101248.00;5047875;28;20052;-80
2021/06/08 04:57:12;;;;;;;15.00;8.90;;;17.00;92.40;;;16.10;87.11;101250.13;5047982;28;20103;-80
2021/06/08 04:59:56;;;;;;;13.25;9.38;;;17.00;92.30;;;16.13;87.41;101251.63;5047608;28;20057;-77
2021/06/08 05:02:44;;;;;;;13.80;10.27;;;17.00;92.20;;;16.15;86.98;101253.13;5047991;28;20052;-77
2021/06/08 05:05:27;;;;;;;20.92;13.68;;;17.10;92.10;;;16.18;86.31;101243.59;5047702;28;20045;-77
2021/06/08 05:08:13;;;;;;;21.75;13.98;;;17.20;91.60;;;16.25;86.06;101247.25;5047924;28;20075;-77
2021/06/08 05:10:58;;;;;;;20.98;14.00;;;17.20;91.20;;;16.29;86.06;101240.28;5047537;28;20048;-77
2021/06/08 05:13:37;;;;;;;22.73;14.95;;;17.30;91.00;;;16.35;85.98;101250.44;5047964;28;20187;-78
2021/06/08 05:16:16;;;;;;;22.65;15.80;;;17.40;90.60;;;16.39;85.50;101246.25;5046435;28;20041;-78
2021/06/08 05:18:57;;;;;;;21.02;15.18;;;17.40;90.40;;;16.45;85.84;101251.97;5048008;28;20077;-78
2021/06/08 05:21:33;;;;;;;20.20;14.45;;;17.50;90.60;;;16.49;86.11;101245.03;5047475;28;20048;-78
2021/06/08 05:24:12;;;;;;;24.65;13.60;;;17.60;90.60;;;16.53;85.86;101244.41;5047804;28;20061;-78
2021/06/08 05:26:53;;;;;;;20.45;13.38;;;17.60;90.20;;;16.58;85.01;101252.00;5048441;28;20041;-79
2021/06/08 05:29:31;;;;;;;21.92;13.27;;;17.60;89.60;;;16.61;85.03;101255.19;5056324;28;20098;-78
2021/06/08 05:32:07;;;;;;;18.27;13.63;;;17.70;89.70;;;16.67;84.54;101256.28;5069564;28;20076;-78
2021/06/08 05:34:43;;;;;;;20.55;12.70;;;17.70;89.40;;;16.70;84.52;101260.53;5071016;28;20511;-78
2021/06/08 05:37:28;;;;;;;21.40;12.98;;;17.70;89.50;;;16.72;84.91;101264.75;5070918;28;20051;-82
2021/06/08 05:40:22;;;;;;;19.55;14.25;;;17.70;89.60;;;16.76;84.47;101270.69;5070594;28;20063;-82
2021/06/08 05:43:00;;;;;;;18.77;14.60;;;17.80;89.40;;;16.77;83.95;101265.00;5070671;28;20040;-83
2021/06/08 05:45:45;;;;;;;22.52;15.10;;;17.80;88.90;;;16.81;83.94;101263.53;5070870;28;20746;-82
2021/06/08 05:48:26;;;;;;;22.75;16.13;;;17.90;88.90;;;16.84;84.36;101261.44;5070847;28;20118;-83
2021/06/08 05:51:04;;;;;;;23.30;16.08;;;17.90;89.30;;;16.89;83.98;101264.41;5070520;28;20048;-83
2021/06/08 05:53:44;;;;;;;24.05;16.65;;;17.90;89.00;;;16.92;84.31;101258.47;5070597;28;20413;-82
2021/06/08 05:56:22;;;;;;;26.07;16.33;;;18.00;89.00;;;16.95;84.01;101263.56;5070325;28;20044;-83
2021/06/08 05:59:02;;;;;;;24.67;16.50;;;18.10;88.70;;;16.99;83.71;101271.19;5070834;28;20279;-84
2021/06/08 06:01:39;;;;;;;25.60;17.23;;;18.20;88.00;;;17.04;83.76;101267.84;5070211;28;20529;-84
2021/06/08 06:04:17;;;;;;;23.95;16.25;;;18.30;88.00;;;17.07;83.84;101267.38;5070653;28;20519;-83
2021/06/08 06:06:55;;;;;;;26.92;17.52;;;18.40;87.80;;;17.16;83.97;101263.38;5070168;28;20037;-82
2021/06/08 06:09:32;;;;;;;31.75;18.52;;;18.70;87.40;;;17.28;83.98;101269.09;5069291;28;20048;-85
2021/06/08 06:12:16;;;;;;;24.88;17.60;;;19.30;85.10;;;17.43;83.89;101268.91;5070212;28;20143;-84
2021/06/08 06:14:54;;;;;;;29.65;17.50;;;20.10;82.80;;;17.67;83.54;101266.56;5055951;28;20564;-85
2021/06/08 06:17:29;;;;;;;23.35;17.95;;;21.00;79.50;;;17.86;82.38;101264.88;5062517;28;20531;-82
2021/06/08 06:20:09;;;;;;;26.63;18.42;;;21.70;75.50;;;18.06;80.94;101259.34;5051510;28;20052;-81
2021/06/08 06:22:47;;;;;;;29.40;19.63;;;21.70;74.50;;;18.18;80.24;101265.84;5050529;28;20103;-81
2021/06/08 06:25:26;;;;;;;27.50;19.60;;;21.60;74.50;;;18.28;79.73;101258.00;5050074;28;20071;-81
2021/06/08 06:28:09;;;;;;;25.50;18.98;;;21.50;75.20;;;18.34;79.89;101264.53;5049839;28;20041;-81
2021/06/08 06:30:48;;;;;;;30.52;19.20;;;21.30;75.50;;;18.36;79.52;101265.16;5049637;28;20128;-81
2021/06/08 06:33:30;;;;;;;27.33;19.92;;;21.30;76.20;;;18.42;80.09;101268.97;5065740;28;20504;-80
2021/06/08 06:36:09;;;;;;;28.67;19.50;;;21.20;76.50;;;18.44;79.99;101273.19;5049877;28;20366;-81
2021/06/08 06:38:47;;;;;;;28.17;20.30;;;21.00;77.60;;;18.49;79.95;101272.53;5049931;28;20060;-81
2021/06/08 06:43:59;;;;;;;32.22;21.75;;;20.90;78.70;;;18.56;80.21;101270.59;4969352;28;20054;-82
2021/06/08 06:46:39;;;;;;;28.85;22.30;;;20.80;79.10;;;18.55;80.05;101268.91;4970848;28;20050;-81
2021/06/08 06:49:18;;;;;;;28.50;20.80;;;20.70;79.40;;;18.56;80.06;101270.59;4970952;28;20129;-81
2021/06/08 06:51:56;;;;;;;32.72;22.63;;;20.70;79.90;;;18.59;80.45;101272.91;4975639;28;20574;-82
2021/06/08 06:54:35;;;;;;;32.08;23.70;;;20.70;80.50;;;18.63;80.82;101274.16;5005366;28;20078;-82
2021/06/08 06:57:11;;;;;;;32.30;23.70;;;20.70;80.70;;;18.67;80.75;101269.91;4990253;28;20100;-82
2021/06/08 07:00:06;;;;;;;35.75;23.95;;;20.70;80.90;;;18.69;80.47;101270.53;4988464;28;20057;-81
2021/06/08 07:02:44;;;;;;;30.00;23.15;;;20.80;80.40;;;18.72;80.35;101275.59;4999392;28;20073;-83
2021/06/08 07:05:22;;;;;;;30.90;22.85;;;20.80;80.60;;;18.71;79.56;101273.91;5009235;28;20073;-82
2021/06/08 07:08:01;;;;;;;31.80;22.67;;;20.80;80.00;;;18.70;79.58;101261.19;4995835;28;20042;-82
2021/06/08 07:10:39;;;;;;;30.58;23.48;;;20.70;80.00;;;18.72;79.94;101275.59;4985945;28;20100;-83
2021/06/08 07:13:18;;;;;;;31.38;22.10;;;20.70;80.20;;;18.73;80.01;101265.41;4984467;28;20074;-82
2021/06/08 07:15:59;;;;;;;33.08;21.92;;;20.70;80.30;;;18.75;80.37;101275.19;4989785;28;20070;-82
2021/06/08 07:18:32;;;;;;;30.58;21.77;;;20.80;80.80;;;18.75;80.61;101269.66;4989770;28;20070;-82
2021/06/08 07:21:11;;;;;;;28.55;21.17;;;20.70;80.80;;;18.76;80.54;101274.09;4987836;28;20058;-82
2021/06/08 07:23:49;;;;;;;32.28;21.85;;;20.70;80.60;;;18.78;80.94;101270.28;4989550;28;20212;-83
2021/06/08 07:26:28;;;;;;;31.40;21.23;;;20.80;81.00;;;18.80;79.93;101270.91;4989502;28;20530;-83
2021/06/08 07:29:08;;;;;;;32.85;21.13;;;20.70;80.10;;;18.82;79.93;101268.81;4989151;28;20050;-83
2021/06/08 07:31:58;;;;;;;32.17;21.70;;;20.80;80.10;;;18.85;79.88;101279.38;4988998;28;20066;-82
2021/06/08 07:34:38;;;;;;;31.23;20.17;;;20.80;80.10;;;18.86;79.42;101275.56;4989603;28;20089;-84
2021/06/08 07:37:19;;;;;;;32.13;20.80;;;20.80;79.50;;;18.87;78.97;101272.59;4987901;28;20046;-82
2021/06/08 07:39:58;;;;;;;29.50;20.17;;;20.80;79.50;;;18.91;79.68;101273.00;4988923;28;20137;-80
2021/06/08 07:42:40;;;;;;;24.73;18.05;;;20.80;80.00;;;18.91;78.24;101278.50;4988785;28;20104;-77
2021/06/08 07:45:23;;;;;;;26.67;17.92;;;20.80;78.40;;;18.92;78.51;101275.53;4989462;28;20050;-81
2021/06/08 07:48:07;;;;;;;28.83;19.48;;;20.80;78.80;;;18.94;77.93;101273.41;4989320;28;20049;-78
2021/06/08 07:50:50;;;;;;;24.48;18.23;;;20.80;78.50;;;18.95;76.43;101277.00;4988702;28;20046;-78
2021/06/08 07:53:28;;;;;;;22.92;15.77;;;20.80;78.50;;;18.94;76.39;101272.53;4989338;28;20120;-78
2021/06/08 07:56:03;;;;;;;21.55;14.15;;;20.80;77.80;;;18.97;76.34;101274.88;4989078;28;20511;-79
2021/06/08 07:58:36;;;;;;;22.65;14.32;;;20.80;78.00;;;19.00;76.11;101277.19;4989418;28;20065;-83
2021/06/08 08:01:12;;;;;;;22.70;16.20;;;20.80;77.70;;;19.07;76.60;101272.44;4989085;28;20605;-78
2021/06/08 08:03:52;;;;;;;20.35;14.75;;;20.90;78.20;;;19.15;77.24;101285.13;4989543;28;20068;-79
2021/06/08 08:06:32;;;;;;;20.13;14.82;;;20.90;79.10;;;19.21;77.26;101277.88;4989315;28;20046;-78
2021/06/08 08:09:06;;;;;;;22.17;15.77;;;20.90;79.00;;;19.35;79.27;101285.00;4989380;28;20068;-79
2021/06/08 08:11:45;;;;;;;22.00;15.30;;;21.00;80.60;;;19.41;77.11;101283.25;4989218;28;20050;-79
2021/06/08 08:14:22;;;;;;;24.75;15.85;;;21.10;78.40;;;19.43;76.91;101281.97;4990806;28;20516;-79
2021/06/08 08:17:01;;;;;;;22.02;14.75;;;21.10;78.80;;;19.56;77.81;101278.25;5008716;28;20117;-79
2021/06/08 08:19:40;;;;;;;22.13;13.80;;;21.20;79.30;;;19.59;75.18;101282.47;5008695;28;20038;-79
2021/06/08 08:22:18;;;;;;;17.83;13.10;;;21.30;76.80;;;19.59;76.48;101279.69;5008678;28;20505;-78
2021/06/08 08:24:57;;;;;;;21.45;14.25;;;21.30;77.70;;;19.53;75.98;101282.31;5008930;28;20073;-79
2021/06/08 08:27:35;;;;;;;19.75;13.45;;;21.30;77.10;;;19.51;75.35;101287.22;5008473;28;20100;-79
2021/06/08 08:30:11;;;;;;;16.35;11.75;;;21.30;76.90;;;19.47;72.39;101287.88;5008570;28;20487;-79
2021/06/08 08:32:49;;;;;;;18.27;11.63;;;21.30;74.50;;;19.56;72.42;101286.53;5008412;28;20049;-79
2021/06/08 08:35:32;;;;;;;17.80;11.65;;;21.30;74.10;;;19.62;68.81;101290.31;4974962;28;20069;-79
2021/06/08 08:38:13;;;;;;;15.43;10.25;;;21.30;72.70;;;19.63;67.50;101278.16;4978930;28;20114;-79
2021/06/08 08:40:51;;;;;;;14.23;9.90;;;21.30;70.90;;;19.64;67.51;101277.94;4969355;28;20074;-79
2021/06/08 08:43:33;;;;;;;17.33;10.68;;;21.30;70.70;;;19.66;68.33;101273.03;4988732;28;20034;-78
2021/06/08 08:46:12;;;;;;;16.98;11.68;;;21.30;71.20;;;19.60;68.16;101270.34;4988711;28;20120;-78
2021/06/08 08:48:54;;;;;;;15.65;10.82;;;21.30;70.80;;;19.58;68.72;101269.75;4988953;28;20050;-79
2021/06/08 08:51:37;;;;;;;17.50;12.25;;;21.30;71.20;;;19.55;68.72;101271.03;4988380;28;20050;-79
2021/06/08 08:54:21;;;;;;;17.08;12.30;;;21.20;70.30;;;19.54;67.41;101267.41;4984737;28;20046;-78
2021/06/08 08:57:00;;;;;;;19.42;12.55;;;21.20;70.00;;;19.59;66.29;101268.66;4980785;28;20057;-78
2021/06/08 08:59:38;;;;;;;21.23;12.30;;;21.20;69.70;;;19.58;68.01;101261.47;4986679;28;20046;-78
2021/06/08 09:02:18;;;;;;;14.85;11.55;;;21.20;71.40;;;19.52;67.33;101264.03;4984989;28;20061;-78
2021/06/08 09:04:56;;;;;;;15.88;11.73;;;21.20;70.30;;;19.48;67.09;101262.81;4992733;28;20057;-78
2021/06/08 09:07:33;;;;;;;15.43;10.15;;;21.20;68.70;;;19.44;66.38;101267.09;4992278;28;20533;-78
2021/06/08 09:10:12;;;;;;;12.85;9.55;;;21.10;69.50;;;19.42;67.43;101255.44;4989671;28;20042;-78
2021/06/08 09:12:50;;;;;;;13.52;8.50;;;21.10;70.70;;;19.40;67.63;101252.06;4982223;28;20784;-78
2021/06/08 09:15:28;;;;;;;11.57;8.65;;;21.10;70.50;;;19.46;65.03;101253.91;4972958;28;20039;-78
2021/06/08 09:18:06;;;;;;;13.13;7.85;;;21.10;68.50;;;19.53;63.98;101248.31;4972969;28;20050;-79
2021/06/08 09:20:45;;;;;;;13.38;9.93;;;21.20;67.40;;;19.56;61.82;101247.88;4972644;28;20042;-79
2021/06/08 09:23:29;;;;;;;12.35;8.45;;;21.20;65.70;;;19.57;62.75;101249.53;4972843;28;20058;-78
2021/06/08 09:26:02;;;;;;;11.18;8.50;;;21.20;65.50;;;19.62;62.91;101248.88;4972320;28;20051;-78
2021/06/08 09:28:42;;;;;;;12.77;9.07;;;21.20;66.80;;;19.63;63.41;101250.56;4972793;28;20121;-78
2021/06/08 09:31:26;;;;;;;12.20;8.93;;;21.30;67.10;;;19.61;60.93;101244.41;4972312;28;20046;-78
2021/06/08 09:34:01;;;;;;;11.45;9.07;;;21.20;64.70;;;19.59;62.63;101241.03;4972707;28;20047;-79
2021/06/08 09:36:39;;;;;;;15.20;9.63;;;21.20;66.20;;;19.56;62.14;101242.34;4971096;28;20057;-79
2021/06/08 09:39:29;;;;;;;17.95;12.32;;;21.20;65.30;;;19.56;63.20;101247.03;4972586;28;20535;-78
2021/06/08 09:42:18;;;;;;;17.38;12.18;;;21.20;66.90;;;19.55;64.54;101243.41;4972102;28;20058;-78
2021/06/08 09:45:11;;;;;;;22.33;12.88;;;21.20;68.20;;;19.54;65.89;101239.81;4972499;28;20077;-78
2021/06/08 09:47:59;;;;;;;18.33;11.93;;;21.20;68.50;;;19.56;67.91;101236.81;4988693;28;20486;-78
2021/06/08 09:50:41;;;;;;;21.15;13.90;;;21.20;70.70;;;19.56;67.39;101241.50;4972239;28;20055;-78
2021/06/08 09:53:30;;;;;;;17.25;14.35;;;21.20;70.00;;;19.54;65.88;101238.97;4985086;28;20494;-78
2021/06/08 09:56:09;;;;;;;20.95;14.70;;;21.20;69.00;;;19.54;66.16;101237.06;4991715;28;20047;-78
2021/06/08 09:58:53;;;;;;;18.33;12.65;;;21.20;68.60;;;19.53;66.02;101243.66;4991656;28;20125;-78
2021/06/08 10:01:30;;;;;;;19.05;13.20;;;21.20;69.30;;;19.54;66.42;101242.56;4991240;28;20541;-78
2021/06/08 10:04:06;;;;;;;19.85;12.75;;;21.20;69.70;;;19.60;67.79;101239.97;4991664;28;20179;-78
2021/06/08 10:06:45;;;;;;;20.33;12.55;;;21.20;70.80;;;19.62;68.96;101241.44;4984261;28;20038;-78
2021/06/08 10:09:23;;;;;;;19.02;12.60;;;21.30;71.80;;;19.65;70.34;101241.00;4991574;28;20042;-78
2021/06/08 10:12:17;;;;;;;16.95;13.30;;;21.30;72.90;;;19.64;68.57;101239.28;4988616;28;20046;-78
2021/06/08 10:14:55;;;;;;;18.42;12.70;;;21.30;70.70;;;19.63;66.29;101236.75;4989979;28;20046;-78
2021/06/08 10:17:38;;;;;;;20.80;14.00;;;21.30;69.00;;;19.63;65.51;101234.84;4985959;28;20173;-78
2021/06/08 10:20:33;;;;;;;18.23;13.60;;;21.30;68.30;;;19.64;66.63;101233.78;4973945;28;20089;-79
2021/06/08 10:23:25;;;;;;;22.98;14.73;;;21.30;70.00;;;19.62;65.19;101235.91;4987248;28;20756;-79
2021/06/08 10:26:06;;;;;;;19.67;14.38;;;21.20;68.40;;;19.63;67.93;101225.72;4989634;28;20050;-79
2021/06/08 10:28:49;;;;;;;21.45;15.60;;;21.30;71.00;;;19.61;66.48;101228.72;4985433;28;20039;-79
2021/06/08 10:31:22;;;;;;;18.75;14.75;;;21.20;69.70;;;19.63;66.66;101225.72;4971186;28;20050;-78
2021/06/08 10:33:57;;;;;;;23.63;16.17;;;21.20;68.90;;;19.66;66.09;101222.50;4977083;28;20487;-77
2021/06/08 10:36:36;;;;;;;20.55;14.15;;;21.30;69.80;;;19.69;65.58;101219.28;4990907;28;20661;-78
2021/06/08 10:39:15;;;;;;;17.80;14.18;;;21.30;68.50;;;19.76;65.96;101206.28;4971412;28;20455;-77
2021/06/08 10:41:51;;;;;;;18.48;13.23;;;21.40;69.70;;;19.83;67.96;101209.81;4971096;28;20066;-78
2021/06/08 10:44:30;;;;;;;18.13;11.23;;;21.40;71.20;;;19.87;67.67;101219.31;4969808;28;20463;-78
2021/06/08 10:47:08;;;;;;;16.33;12.13;;;21.50;70.30;;;19.86;63.19;101209.38;4972163;28;20074;-78
2021/06/08 10:49:48;;;;;;;16.17;12.77;;;21.50;65.60;;;19.97;62.66;101210.53;4969617;28;20051;-78
2021/06/08 10:52:28;;;;;;;14.30;10.13;;;21.50;66.10;;;20.08;63.49;101203.38;4977011;28;20446;-78
2021/06/08 10:55:19;;;;;;;16.40;11.27;;;21.60;67.60;;;20.11;63.98;101208.44;4979166;28;20046;-78
2021/06/08 10:57:57;;;;;;;15.25;10.80;;;21.70;66.70;;;20.09;63.41;101207.84;4971488;28;20070;-77